sensor_id;sensor_type;location;lat;lon;timestamp;P1;durP1;ratioP1;P2;durP2;ratioP2
15238;SDS011;7722;53.274;9.500;2022-09-21T00:01:02;0.80;;;0.80;;
15238;SDS011;7722;53.274;9.500;2022-09-21T00:03:32;0.60;;;0.60;;
15238;SDS011;7722;53.274;9.500;2022-09-21T00:06:02;0.70;;;0.70;;
15238;SDS011;7722;53.274;9.500;2022-09-21T00:08:30;0.67;;;0.67;;
15238;SDS011;7722;53.274;9.500;2022-09-21T00:10:57;0.90;;;0.90;;
15238;SDS011;7722;53.274;9.500;2022-09-21T00:13:24;1.10;;;1.10;;
15238;SDS011;7722;53.274;9.500;2022-09-21T00:15:52;0.60;;;0.60;;
15238;SDS011;7722;53.274;9.500;2022-09-21T00:18:20;0.60;;;0.60;;
15238;SDS011;7722;53.274;9.500;2022-09-21T00:20:49;0.90;;;0.90;;
15238;SDS011;7722;53.274;9.500;2022-09-21T00:23:16;0.70;;;0.70;;
15238;SDS011;7722;53.274;9.500;2022-09-21T00:25:43;0.80;;;0.80;;
15238;SDS011;7722;53.274;9.500;2022-09-21T00:28:10;1.00;;;1.00;;
15238;SDS011;7722;53.274;9.500;2022-09-21T00:30:38;1.73;;;1.73;;
15238;SDS011;7722;53.274;9.500;2022-09-21T00:33:05;0.83;;;0.83;;
15238;SDS011;7722;53.274;9.500;2022-09-21T00:35:32;0.70;;;0.70;;
15238;SDS011;7722;53.274;9.500;2022-09-21T00:38:02;1.00;;;1.00;;
15238;SDS011;7722;53.274;9.500;2022-09-21T00:40:29;0.80;;;0.80;;
15238;SDS011;7722;53.274;9.500;2022-09-21T00:43:09;0.80;;;0.80;;
15238;SDS011;7722;53.274;9.500;2022-09-21T00:45:38;0.90;;;0.90;;
15238;SDS011;7722;53.274;9.500;2022-09-21T00:48:05;0.60;;;0.60;;
15238;SDS011;7722;53.274;9.500;2022-09-21T00:50:32;0.70;;;0.70;;
15238;SDS011;7722;53.274;9.500;2022-09-21T00:53:02;0.60;;;0.60;;
15238;SDS011;7722;53.274;9.500;2022-09-21T00:55:31;1.17;;;1.17;;
15238;SDS011;7722;53.274;9.500;2022-09-21T00:58:02;0.90;;;0.90;;
15238;SDS011;7722;53.274;9.500;2022-09-21T01:00:33;0.77;;;0.77;;
15238;SDS011;7722;53.274;9.500;2022-09-21T01:03:01;0.77;;;0.77;;
15238;SDS011;7722;53.274;9.500;2022-09-21T01:05:29;0.93;;;0.93;;
15238;SDS011;7722;53.274;9.500;2022-09-21T01:07:57;0.80;;;0.80;;
15238;SDS011;7722;53.274;9.500;2022-09-21T01:10:30;1.30;;;1.30;;
15238;SDS011;7722;53.274;9.500;2022-09-21T01:13:09;0.70;;;0.70;;
15238;SDS011;7722;53.274;9.500;2022-09-21T01:15:45;0.90;;;0.90;;
15238;SDS011;7722;53.274;9.500;2022-09-21T01:18:19;1.00;;;1.00;;
15238;SDS011;7722;53.274;9.500;2022-09-21T01:21:07;0.70;;;0.70;;
15238;SDS011;7722;53.274;9.500;2022-09-21T01:29:56;0.70;;;0.70;;
15238;SDS011;7722;53.274;9.500;2022-09-21T01:32:27;0.80;;;0.80;;
15238;SDS011;7722;53.274;9.500;2022-09-21T01:34:59;0.90;;;0.90;;
15238;SDS011;7722;53.274;9.500;2022-09-21T01:37:31;0.70;;;0.70;;
15238;SDS011;7722;53.274;9.500;2022-09-21T01:40:03;0.80;;;0.80;;
15238;SDS011;7722;53.274;9.500;2022-09-21T01:42:35;1.00;;;1.00;;
15238;SDS011;7722;53.274;9.500;2022-09-21T01:45:06;0.53;;;0.53;;
15238;SDS011;7722;53.274;9.500;2022-09-21T01:47:36;0.90;;;0.90;;
15238;SDS011;7722;53.274;9.500;2022-09-21T01:50:06;0.87;;;0.87;;
15238;SDS011;7722;53.274;9.500;2022-09-21T01:52:37;0.90;;;0.90;;
15238;SDS011;7722;53.274;9.500;2022-09-21T01:55:09;0.70;;;0.70;;
15238;SDS011;7722;53.274;9.500;2022-09-21T01:57:42;1.10;;;1.10;;
15238;SDS011;7722;53.274;9.500;2022-09-21T02:00:16;0.70;;;0.70;;
15238;SDS011;7722;53.274;9.500;2022-09-21T02:02:45;0.93;;;0.93;;
15238;SDS011;7722;53.274;9.500;2022-09-21T02:05:16;0.77;;;0.77;;
15238;SDS011;7722;53.274;9.500;2022-09-21T02:07:46;0.80;;;0.80;;
15238;SDS011;7722;53.274;9.500;2022-09-21T02:10:17;0.90;;;0.90;;
15238;SDS011;7722;53.274;9.500;2022-09-21T02:12:49;0.80;;;0.80;;
15238;SDS011;7722;53.274;9.500;2022-09-21T02:15:28;0.80;;;0.80;;
15238;SDS011;7722;53.274;9.500;2022-09-21T02:18:01;0.80;;;0.80;;
15238;SDS011;7722;53.274;9.500;2022-09-21T02:20:33;0.90;;;0.90;;
15238;SDS011;7722;53.274;9.500;2022-09-21T02:23:09;1.00;;;1.00;;
15238;SDS011;7722;53.274;9.500;2022-09-21T02:25:42;0.70;;;0.70;;
15238;SDS011;7722;53.274;9.500;2022-09-21T02:28:18;0.80;;;0.80;;
15238;SDS011;7722;53.274;9.500;2022-09-21T02:30:54;0.80;;;0.80;;
15238;SDS011;7722;53.274;9.500;2022-09-21T02:33:27;0.67;;;0.67;;
15238;SDS011;7722;53.274;9.500;2022-09-21T02:35:58;1.00;;;1.00;;
15238;SDS011;7722;53.274;9.500;2022-09-21T02:38:32;0.87;;;0.87;;
15238;SDS011;7722;53.274;9.500;2022-09-21T02:41:03;1.00;;;1.00;;
15238;SDS011;7722;53.274;9.500;2022-09-21T02:43:38;0.97;;;0.97;;
15238;SDS011;7722;53.274;9.500;2022-09-21T02:46:12;0.90;;;0.90;;
15238;SDS011;7722;53.274;9.500;2022-09-21T02:48:44;0.80;;;0.80;;
15238;SDS011;7722;53.274;9.500;2022-09-21T02:51:15;0.70;;;0.70;;
15238;SDS011;7722;53.274;9.500;2022-09-21T02:53:45;1.13;;;1.13;;
15238;SDS011;7722;53.274;9.500;2022-09-21T02:56:14;0.93;;;0.93;;
15238;SDS011;7722;53.274;9.500;2022-09-21T02:58:43;1.10;;;1.10;;
15238;SDS011;7722;53.274;9.500;2022-09-21T03:01:15;1.00;;;1.00;;
15238;SDS011;7722;53.274;9.500;2022-09-21T03:03:44;0.90;;;0.90;;
15238;SDS011;7722;53.274;9.500;2022-09-21T03:06:11;0.80;;;0.80;;
15238;SDS011;7722;53.274;9.500;2022-09-21T03:08:38;0.80;;;0.80;;
15238;SDS011;7722;53.274;9.500;2022-09-21T03:11:06;0.67;;;0.67;;
15238;SDS011;7722;53.274;9.500;2022-09-21T03:13:35;0.90;;;0.90;;
15238;SDS011;7722;53.274;9.500;2022-09-21T03:16:04;1.00;;;1.00;;
15238;SDS011;7722;53.274;9.500;2022-09-21T03:18:33;0.70;;;0.70;;
15238;SDS011;7722;53.274;9.500;2022-09-21T03:21:01;1.20;;;1.20;;
15238;SDS011;7722;53.274;9.500;2022-09-21T03:23:28;0.80;;;0.80;;
15238;SDS011;7722;53.274;9.500;2022-09-21T03:25:55;0.83;;;0.83;;
15238;SDS011;7722;53.274;9.500;2022-09-21T03:28:23;0.90;;;0.90;;
15238;SDS011;7722;53.274;9.500;2022-09-21T03:30:50;0.90;;;0.90;;
15238;SDS011;7722;53.274;9.500;2022-09-21T03:33:18;0.80;;;0.80;;
15238;SDS011;7722;53.274;9.500;2022-09-21T03:35:48;1.00;;;1.00;;
15238;SDS011;7722;53.274;9.500;2022-09-21T03:38:15;0.90;;;0.90;;
15238;SDS011;7722;53.274;9.500;2022-09-21T03:40:43;0.87;;;0.87;;
15238;SDS011;7722;53.274;9.500;2022-09-21T03:43:11;0.70;;;0.70;;
15238;SDS011;7722;53.274;9.500;2022-09-21T03:45:38;0.70;;;0.70;;
15238;SDS011;7722;53.274;9.500;2022-09-21T03:48:07;0.80;;;0.80;;
15238;SDS011;7722;53.274;9.500;2022-09-21T03:50:34;0.80;;;0.80;;
15238;SDS011;7722;53.274;9.500;2022-09-21T03:53:03;0.90;;;0.90;;
15238;SDS011;7722;53.274;9.500;2022-09-21T03:55:31;0.70;;;0.70;;
15238;SDS011;7722;53.274;9.500;2022-09-21T03:57:58;0.90;;;0.90;;
15238;SDS011;7722;53.274;9.500;2022-09-21T04:00:26;1.10;;;1.10;;
15238;SDS011;7722;53.274;9.500;2022-09-21T04:02:53;0.73;;;0.73;;
15238;SDS011;7722;53.274;9.500;2022-09-21T04:05:21;0.90;;;0.90;;
15238;SDS011;7722;53.274;9.500;2022-09-21T04:07:48;0.87;;;0.87;;
15238;SDS011;7722;53.274;9.500;2022-09-21T04:10:18;0.93;;;0.93;;
15238;SDS011;7722;53.274;9.500;2022-09-21T04:12:47;0.80;;;0.80;;
15238;SDS011;7722;53.274;9.500;2022-09-21T04:15:15;0.80;;;0.80;;
15238;SDS011;7722;53.274;9.500;2022-09-21T04:17:44;0.97;;;0.97;;
15238;SDS011;7722;53.274;9.500;2022-09-21T04:20:11;0.80;;;0.80;;
15238;SDS011;7722;53.274;9.500;2022-09-21T04:22:39;0.97;;;0.97;;
15238;SDS011;7722;53.274;9.500;2022-09-21T04:25:06;0.77;;;0.77;;
15238;SDS011;7722;53.274;9.500;2022-09-21T04:27:37;0.83;;;0.83;;
15238;SDS011;7722;53.274;9.500;2022-09-21T04:30:05;0.70;;;0.70;;
15238;SDS011;7722;53.274;9.500;2022-09-21T04:32:34;0.90;;;0.90;;
15238;SDS011;7722;53.274;9.500;2022-09-21T04:35:01;1.10;;;1.10;;
15238;SDS011;7722;53.274;9.500;2022-09-21T04:37:28;0.87;;;0.87;;
15238;SDS011;7722;53.274;9.500;2022-09-21T04:39:55;0.97;;;0.97;;
15238;SDS011;7722;53.274;9.500;2022-09-21T04:42:22;1.27;;;1.27;;
15238;SDS011;7722;53.274;9.500;2022-09-21T04:44:53;0.90;;;0.90;;
15238;SDS011;7722;53.274;9.500;2022-09-21T04:47:20;1.00;;;1.00;;
15238;SDS011;7722;53.274;9.500;2022-09-21T04:49:48;0.87;;;0.87;;
15238;SDS011;7722;53.274;9.500;2022-09-21T04:52:15;1.30;;;1.30;;
15238;SDS011;7722;53.274;9.500;2022-09-21T04:54:43;1.00;;;1.00;;
15238;SDS011;7722;53.274;9.500;2022-09-21T04:57:10;1.20;;;1.20;;
15238;SDS011;7722;53.274;9.500;2022-09-21T04:59:38;1.00;;;1.00;;
15238;SDS011;7722;53.274;9.500;2022-09-21T05:02:06;0.80;;;0.80;;
15238;SDS011;7722;53.274;9.500;2022-09-21T05:04:34;0.93;;;0.93;;
15238;SDS011;7722;53.274;9.500;2022-09-21T05:07:01;1.00;;;1.00;;
15238;SDS011;7722;53.274;9.500;2022-09-21T05:09:28;0.80;;;0.80;;
15238;SDS011;7722;53.274;9.500;2022-09-21T05:12:13;1.10;;;1.10;;
15238;SDS011;7722;53.274;9.500;2022-09-21T05:14:44;3.40;;;3.20;;
15238;SDS011;7722;53.274;9.500;2022-09-21T05:17:13;0.93;;;0.93;;
15238;SDS011;7722;53.274;9.500;2022-09-21T05:19:40;1.10;;;1.10;;
15238;SDS011;7722;53.274;9.500;2022-09-21T05:22:07;1.00;;;1.00;;
15238;SDS011;7722;53.274;9.500;2022-09-21T05:24:34;1.07;;;1.07;;
15238;SDS011;7722;53.274;9.500;2022-09-21T05:27:02;0.70;;;0.70;;
15238;SDS011;7722;53.274;9.500;2022-09-21T05:29:30;1.00;;;1.00;;
15238;SDS011;7722;53.274;9.500;2022-09-21T05:32:00;0.70;;;0.70;;
15238;SDS011;7722;53.274;9.500;2022-09-21T05:34:38;0.80;;;0.80;;
15238;SDS011;7722;53.274;9.500;2022-09-21T05:37:19;0.90;;;0.90;;
15238;SDS011;7722;53.274;9.500;2022-09-21T05:40:13;1.10;;;1.10;;
15238;SDS011;7722;53.274;9.500;2022-09-21T05:42:42;0.90;;;0.90;;
15238;SDS011;7722;53.274;9.500;2022-09-21T05:45:16;1.20;;;1.20;;
15238;SDS011;7722;53.274;9.500;2022-09-21T05:47:48;0.90;;;0.90;;
15238;SDS011;7722;53.274;9.500;2022-09-21T05:50:27;1.10;;;1.10;;
15238;SDS011;7722;53.274;9.500;2022-09-21T05:56:07;0.90;;;0.90;;
15238;SDS011;7722;53.274;9.500;2022-09-21T05:58:41;0.80;;;0.80;;
15238;SDS011;7722;53.274;9.500;2022-09-21T06:01:19;1.10;;;1.10;;
15238;SDS011;7722;53.274;9.500;2022-09-21T06:03:55;0.80;;;0.80;;
15238;SDS011;7722;53.274;9.500;2022-09-21T06:06:25;0.90;;;0.90;;
15238;SDS011;7722;53.274;9.500;2022-09-21T06:08:52;0.97;;;0.97;;
15238;SDS011;7722;53.274;9.500;2022-09-21T06:11:19;0.80;;;0.80;;
15238;SDS011;7722;53.274;9.500;2022-09-21T06:13:46;0.90;;;0.90;;
15238;SDS011;7722;53.274;9.500;2022-09-21T06:16:13;0.77;;;0.77;;
15238;SDS011;7722;53.274;9.500;2022-09-21T06:18:40;0.70;;;0.70;;
15238;SDS011;7722;53.274;9.500;2022-09-21T06:21:08;0.93;;;0.93;;
15238;SDS011;7722;53.274;9.500;2022-09-21T06:23:36;0.90;;;0.90;;
15238;SDS011;7722;53.274;9.500;2022-09-21T06:26:04;0.80;;;0.80;;
15238;SDS011;7722;53.274;9.500;2022-09-21T06:28:31;1.00;;;1.00;;
15238;SDS011;7722;53.274;9.500;2022-09-21T06:30:58;0.97;;;0.97;;
15238;SDS011;7722;53.274;9.500;2022-09-21T06:33:25;0.90;;;0.90;;
15238;SDS011;7722;53.274;9.500;2022-09-21T06:35:53;0.80;;;0.80;;
15238;SDS011;7722;53.274;9.500;2022-09-21T06:38:21;0.80;;;0.80;;
15238;SDS011;7722;53.274;9.500;2022-09-21T06:40:50;0.80;;;0.80;;
15238;SDS011;7722;53.274;9.500;2022-09-21T06:43:17;0.63;;;0.63;;
15238;SDS011;7722;53.274;9.500;2022-09-21T06:45:51;0.73;;;0.73;;
15238;SDS011;7722;53.274;9.500;2022-09-21T06:48:19;1.00;;;1.00;;
15238;SDS011;7722;53.274;9.500;2022-09-21T06:50:47;0.80;;;0.80;;
15238;SDS011;7722;53.274;9.500;2022-09-21T06:53:14;0.70;;;0.70;;
15238;SDS011;7722;53.274;9.500;2022-09-21T06:55:41;0.60;;;0.60;;
15238;SDS011;7722;53.274;9.500;2022-09-21T06:58:10;0.60;;;0.60;;
15238;SDS011;7722;53.274;9.500;2022-09-21T07:00:37;0.87;;;0.87;;
15238;SDS011;7722;53.274;9.500;2022-09-21T07:03:05;0.50;;;0.50;;
15238;SDS011;7722;53.274;9.500;2022-09-21T07:05:32;0.60;;;0.60;;
15238;SDS011;7722;53.274;9.500;2022-09-21T07:07:59;0.73;;;0.73;;
15238;SDS011;7722;53.274;9.500;2022-09-21T07:10:26;0.60;;;0.60;;
15238;SDS011;7722;53.274;9.500;2022-09-21T07:12:54;0.50;;;0.50;;
15238;SDS011;7722;53.274;9.500;2022-09-21T07:15:22;0.60;;;0.60;;
15238;SDS011;7722;53.274;9.500;2022-09-21T07:17:53;0.50;;;0.50;;
15238;SDS011;7722;53.274;9.500;2022-09-21T07:20:20;0.60;;;0.60;;
15238;SDS011;7722;53.274;9.500;2022-09-21T07:22:47;0.50;;;0.50;;
15238;SDS011;7722;53.274;9.500;2022-09-21T07:25:14;0.50;;;0.50;;
15238;SDS011;7722;53.274;9.500;2022-09-21T07:27:42;0.50;;;0.50;;
15238;SDS011;7722;53.274;9.500;2022-09-21T07:30:09;0.60;;;0.60;;
15238;SDS011;7722;53.274;9.500;2022-09-21T07:32:38;0.60;;;0.60;;
15238;SDS011;7722;53.274;9.500;2022-09-21T07:35:06;0.47;;;0.47;;
15238;SDS011;7722;53.274;9.500;2022-09-21T07:37:33;0.60;;;0.60;;
15238;SDS011;7722;53.274;9.500;2022-09-21T07:40:00;0.50;;;0.50;;
15238;SDS011;7722;53.274;9.500;2022-09-21T07:42:30;0.50;;;0.50;;
15238;SDS011;7722;53.274;9.500;2022-09-21T07:44:57;0.50;;;0.50;;
15238;SDS011;7722;53.274;9.500;2022-09-21T07:47:24;0.60;;;0.60;;
15238;SDS011;7722;53.274;9.500;2022-09-21T07:49:54;0.50;;;0.50;;
15238;SDS011;7722;53.274;9.500;2022-09-21T07:52:21;0.50;;;0.50;;
15238;SDS011;7722;53.274;9.500;2022-09-21T07:54:48;0.57;;;0.57;;
15238;SDS011;7722;53.274;9.500;2022-09-21T07:57:15;0.43;;;0.43;;
15238;SDS011;7722;53.274;9.500;2022-09-21T07:59:59;0.40;;;0.40;;
15238;SDS011;7722;53.274;9.500;2022-09-21T08:02:27;0.40;;;0.40;;
15238;SDS011;7722;53.274;9.500;2022-09-21T08:04:55;0.40;;;0.40;;
15238;SDS011;7722;53.274;9.500;2022-09-21T08:07:22;0.40;;;0.40;;
15238;SDS011;7722;53.274;9.500;2022-09-21T08:09:52;0.30;;;0.30;;
15238;SDS011;7722;53.274;9.500;2022-09-21T08:12:19;0.47;;;0.47;;
15238;SDS011;7722;53.274;9.500;2022-09-21T08:14:46;0.30;;;0.30;;
15238;SDS011;7722;53.274;9.500;2022-09-21T08:17:14;0.40;;;0.40;;
15238;SDS011;7722;53.274;9.500;2022-09-21T08:19:41;0.30;;;0.30;;
15238;SDS011;7722;53.274;9.500;2022-09-21T08:22:09;0.80;;;0.80;;
15238;SDS011;7722;53.274;9.500;2022-09-21T08:24:38;0.60;;;0.60;;
15238;SDS011;7722;53.274;9.500;2022-09-21T08:27:06;0.22;;;0.22;;
15238;SDS011;7722;53.274;9.500;2022-09-21T08:29:33;0.20;;;0.20;;
15238;SDS011;7722;53.274;9.500;2022-09-21T08:32:00;0.65;;;0.65;;
15238;SDS011;7722;53.274;9.500;2022-09-21T08:34:28;0.40;;;0.40;;
15238;SDS011;7722;53.274;9.500;2022-09-21T08:36:55;0.30;;;0.30;;
15238;SDS011;7722;53.274;9.500;2022-09-21T08:39:24;0.40;;;0.40;;
15238;SDS011;7722;53.274;9.500;2022-09-21T08:41:58;0.40;;;0.40;;
15238;SDS011;7722;53.274;9.500;2022-09-21T08:44:36;0.75;;;0.75;;
15238;SDS011;7722;53.274;9.500;2022-09-21T08:47:08;0.50;;;0.50;;
15238;SDS011;7722;53.274;9.500;2022-09-21T08:49:38;0.30;;;0.30;;
15238;SDS011;7722;53.274;9.500;2022-09-21T08:52:07;0.30;;;0.30;;
15238;SDS011;7722;53.274;9.500;2022-09-21T08:54:41;0.40;;;0.40;;
15238;SDS011;7722;53.274;9.500;2022-09-21T08:57:13;0.30;;;0.30;;
15238;SDS011;7722;53.274;9.500;2022-09-21T08:59:42;0.25;;;0.25;;
15238;SDS011;7722;53.274;9.500;2022-09-21T09:02:28;0.40;;;0.40;;
15238;SDS011;7722;53.274;9.500;2022-09-21T09:05:11;0.28;;;0.28;;
15238;SDS011;7722;53.274;9.500;2022-09-21T09:07:51;0.30;;;0.30;;
15238;SDS011;7722;53.274;9.500;2022-09-21T09:10:38;0.38;;;0.38;;
15238;SDS011;7722;53.274;9.500;2022-09-21T09:13:22;0.40;;;0.40;;
15238;SDS011;7722;53.274;9.500;2022-09-21T09:16:09;0.73;;;0.50;;
15238;SDS011;7722;53.274;9.500;2022-09-21T09:18:42;0.30;;;0.30;;
15238;SDS011;7722;53.274;9.500;2022-09-21T09:21:15;0.30;;;0.30;;
15238;SDS011;7722;53.274;9.500;2022-09-21T09:23:50;1.67;;;0.60;;
15238;SDS011;7722;53.274;9.500;2022-09-21T09:26:27;0.30;;;0.30;;
15238;SDS011;7722;53.274;9.500;2022-09-21T09:28:59;0.30;;;0.30;;
15238;SDS011;7722;53.274;9.500;2022-09-21T09:31:32;0.30;;;0.30;;
15238;SDS011;7722;53.274;9.500;2022-09-21T09:34:02;0.30;;;0.30;;
15238;SDS011;7722;53.274;9.500;2022-09-21T09:36:37;0.20;;;0.20;;
15238;SDS011;7722;53.274;9.500;2022-09-21T09:39:09;0.30;;;0.30;;
15238;SDS011;7722;53.274;9.500;2022-09-21T09:41:55;1.17;;;1.17;;
15238;SDS011;7722;53.274;9.500;2022-09-21T09:44:53;0.30;;;0.30;;
15238;SDS011;7722;53.274;9.500;2022-09-21T09:47:42;0.30;;;0.30;;
15238;SDS011;7722;53.274;9.500;2022-09-21T09:50:17;0.30;;;0.30;;
15238;SDS011;7722;53.274;9.500;2022-09-21T09:52:51;0.40;;;0.40;;
15238;SDS011;7722;53.274;9.500;2022-09-21T09:55:25;0.20;;;0.20;;
15238;SDS011;7722;53.274;9.500;2022-09-21T09:58:01;0.30;;;0.30;;
15238;SDS011;7722;53.274;9.500;2022-09-21T10:00:29;0.30;;;0.30;;
15238;SDS011;7722;53.274;9.500;2022-09-21T10:02:57;0.20;;;0.20;;
15238;SDS011;7722;53.274;9.500;2022-09-21T10:05:30;0.30;;;0.30;;
15238;SDS011;7722;53.274;9.500;2022-09-21T10:07:58;0.30;;;0.30;;
15238;SDS011;7722;53.274;9.500;2022-09-21T10:10:30;0.20;;;0.20;;
15238;SDS011;7722;53.274;9.500;2022-09-21T10:13:10;0.40;;;0.40;;
15238;SDS011;7722;53.274;9.500;2022-09-21T10:15:40;0.20;;;0.20;;
15238;SDS011;7722;53.274;9.500;2022-09-21T10:18:14;0.32;;;0.32;;
15238;SDS011;7722;53.274;9.500;2022-09-21T10:20:53;0.20;;;0.20;;
15238;SDS011;7722;53.274;9.500;2022-09-21T10:23:22;0.20;;;0.20;;
15238;SDS011;7722;53.274;9.500;2022-09-21T10:25:55;0.20;;;0.20;;
15238;SDS011;7722;53.274;9.500;2022-09-21T10:28:26;0.20;;;0.20;;
15238;SDS011;7722;53.274;9.500;2022-09-21T10:33:52;0.20;;;0.20;;
15238;SDS011;7722;53.274;9.500;2022-09-21T10:36:31;0.30;;;0.30;;
15238;SDS011;7722;53.274;9.500;2022-09-21T10:42:01;0.20;;;0.20;;
15238;SDS011;7722;53.274;9.500;2022-09-21T10:44:36;0.30;;;0.30;;
15238;SDS011;7722;53.274;9.500;2022-09-21T10:50:00;0.20;;;0.20;;
15238;SDS011;7722;53.274;9.500;2022-09-21T10:52:31;0.30;;;0.30;;
15238;SDS011;7722;53.274;9.500;2022-09-21T10:55:01;0.20;;;0.20;;
15238;SDS011;7722;53.274;9.500;2022-09-21T10:57:28;0.22;;;0.22;;
15238;SDS011;7722;53.274;9.500;2022-09-21T10:59:58;0.20;;;0.20;;
15238;SDS011;7722;53.274;9.500;2022-09-21T11:02:53;1.40;;;1.35;;
15238;SDS011;7722;53.274;9.500;2022-09-21T11:05:22;0.20;;;0.20;;
15238;SDS011;7722;53.274;9.500;2022-09-21T11:07:54;0.20;;;0.20;;
15238;SDS011;7722;53.274;9.500;2022-09-21T11:10:26;0.20;;;0.20;;
15238;SDS011;7722;53.274;9.500;2022-09-21T11:13:02;0.20;;;0.20;;
15238;SDS011;7722;53.274;9.500;2022-09-21T11:15:44;0.20;;;0.20;;
15238;SDS011;7722;53.274;9.500;2022-09-21T11:18:18;0.10;;;0.10;;
15238;SDS011;7722;53.274;9.500;2022-09-21T11:20:53;0.20;;;0.20;;
15238;SDS011;7722;53.274;9.500;2022-09-21T11:23:35;0.20;;;0.20;;
15238;SDS011;7722;53.274;9.500;2022-09-21T11:26:11;0.20;;;0.20;;
15238;SDS011;7722;53.274;9.500;2022-09-21T11:28:46;0.10;;;0.10;;
15238;SDS011;7722;53.274;9.500;2022-09-21T11:31:39;0.20;;;0.20;;
15238;SDS011;7722;53.274;9.500;2022-09-21T11:34:21;0.20;;;0.20;;
15238;SDS011;7722;53.274;9.500;2022-09-21T11:37:25;0.10;;;0.10;;
15238;SDS011;7722;53.274;9.500;2022-09-21T11:40:11;0.20;;;0.20;;
15238;SDS011;7722;53.274;9.500;2022-09-21T11:42:54;0.20;;;0.20;;
15238;SDS011;7722;53.274;9.500;2022-09-21T11:45:41;0.20;;;0.20;;
15238;SDS011;7722;53.274;9.500;2022-09-21T11:48:20;0.13;;;0.13;;
15238;SDS011;7722;53.274;9.500;2022-09-21T11:50:59;0.20;;;0.20;;
15238;SDS011;7722;53.274;9.500;2022-09-21T11:53:37;0.30;;;0.30;;
15238;SDS011;7722;53.274;9.500;2022-09-21T11:56:26;0.20;;;0.20;;
15238;SDS011;7722;53.274;9.500;2022-09-21T11:59:12;0.20;;;0.20;;
15238;SDS011;7722;53.274;9.500;2022-09-21T12:02:03;0.20;;;0.20;;
15238;SDS011;7722;53.274;9.500;2022-09-21T12:04:49;0.20;;;0.20;;
15238;SDS011;7722;53.274;9.500;2022-09-21T12:07:28;0.13;;;0.13;;
15238;SDS011;7722;53.274;9.500;2022-09-21T12:13:12;0.10;;;0.10;;
15238;SDS011;7722;53.274;9.500;2022-09-21T12:15:49;0.10;;;0.10;;
15238;SDS011;7722;53.274;9.500;2022-09-21T12:18:27;0.10;;;0.10;;
15238;SDS011;7722;53.274;9.500;2022-09-21T12:21:03;0.10;;;0.10;;
15238;SDS011;7722;53.274;9.500;2022-09-21T12:23:39;0.10;;;0.10;;
15238;SDS011;7722;53.274;9.500;2022-09-21T12:26:08;0.10;;;0.10;;
15238;SDS011;7722;53.274;9.500;2022-09-21T12:28:38;0.20;;;0.20;;
15238;SDS011;7722;53.274;9.500;2022-09-21T12:31:08;0.10;;;0.10;;
15238;SDS011;7722;53.274;9.500;2022-09-21T12:33:42;0.10;;;0.10;;
15238;SDS011;7722;53.274;9.500;2022-09-21T12:36:16;0.10;;;0.10;;
15238;SDS011;7722;53.274;9.500;2022-09-21T12:38:47;0.20;;;0.20;;
15238;SDS011;7722;53.274;9.500;2022-09-21T12:41:20;0.10;;;0.10;;
15238;SDS011;7722;53.274;9.500;2022-09-21T12:43:55;0.10;;;0.10;;
15238;SDS011;7722;53.274;9.500;2022-09-21T12:46:32;0.10;;;0.10;;
15238;SDS011;7722;53.274;9.500;2022-09-21T12:49:07;0.10;;;0.10;;
15238;SDS011;7722;53.274;9.500;2022-09-21T12:51:41;0.10;;;0.10;;
15238;SDS011;7722;53.274;9.500;2022-09-21T12:54:16;0.10;;;0.10;;
15238;SDS011;7722;53.274;9.500;2022-09-21T12:56:50;0.10;;;0.10;;
15238;SDS011;7722;53.274;9.500;2022-09-21T12:59:26;0.10;;;0.10;;
15238;SDS011;7722;53.274;9.500;2022-09-21T13:02:04;0.10;;;0.10;;
15238;SDS011;7722;53.274;9.500;2022-09-21T13:04:49;0.10;;;0.10;;
15238;SDS011;7722;53.274;9.500;2022-09-21T13:07:37;0.10;;;0.10;;
15238;SDS011;7722;53.274;9.500;2022-09-21T13:10:17;0.10;;;0.10;;
15238;SDS011;7722;53.274;9.500;2022-09-21T13:12:46;0.80;;;0.80;;
15238;SDS011;7722;53.274;9.500;2022-09-21T13:15:23;0.10;;;0.10;;
15238;SDS011;7722;53.274;9.500;2022-09-21T13:17:56;0.10;;;0.10;;
15238;SDS011;7722;53.274;9.500;2022-09-21T13:20:25;0.10;;;0.10;;
15238;SDS011;7722;53.274;9.500;2022-09-21T13:23:00;0.10;;;0.10;;
15238;SDS011;7722;53.274;9.500;2022-09-21T13:25:28;0.10;;;0.10;;
15238;SDS011;7722;53.274;9.500;2022-09-21T13:27:57;0.20;;;0.20;;
15238;SDS011;7722;53.274;9.500;2022-09-21T13:30:29;0.10;;;0.10;;
15238;SDS011;7722;53.274;9.500;2022-09-21T13:33:02;0.10;;;0.10;;
15238;SDS011;7722;53.274;9.500;2022-09-21T13:38:23;0.10;;;0.10;;
15238;SDS011;7722;53.274;9.500;2022-09-21T13:40:55;0.10;;;0.10;;
15238;SDS011;7722;53.274;9.500;2022-09-21T13:43:41;0.10;;;0.10;;
15238;SDS011;7722;53.274;9.500;2022-09-21T13:49:16;0.00;;;0.00;;
15238;SDS011;7722;53.274;9.500;2022-09-21T13:52:00;0.10;;;0.10;;
15238;SDS011;7722;53.274;9.500;2022-09-21T13:54:32;0.10;;;0.10;;
15238;SDS011;7722;53.274;9.500;2022-09-21T13:57:17;0.17;;;0.17;;
15238;SDS011;7722;53.274;9.500;2022-09-21T13:59:46;0.30;;;0.30;;
15238;SDS011;7722;53.274;9.500;2022-09-21T14:02:27;0.10;;;0.10;;
15238;SDS011;7722;53.274;9.500;2022-09-21T14:05:02;0.10;;;0.10;;
15238;SDS011;7722;53.274;9.500;2022-09-21T14:07:34;0.10;;;0.10;;
15238;SDS011;7722;53.274;9.500;2022-09-21T14:10:06;0.20;;;0.20;;
15238;SDS011;7722;53.274;9.500;2022-09-21T14:12:37;0.20;;;0.20;;
15238;SDS011;7722;53.274;9.500;2022-09-21T14:21:11;0.20;;;0.20;;
15238;SDS011;7722;53.274;9.500;2022-09-21T14:26:44;0.20;;;0.20;;
15238;SDS011;7722;53.274;9.500;2022-09-21T14:29:22;0.20;;;0.20;;
15238;SDS011;7722;53.274;9.500;2022-09-21T14:31:53;0.20;;;0.20;;
15238;SDS011;7722;53.274;9.500;2022-09-21T14:34:24;0.20;;;0.20;;
15238;SDS011;7722;53.274;9.500;2022-09-21T14:36:55;0.20;;;0.20;;
15238;SDS011;7722;53.274;9.500;2022-09-21T14:39:27;0.20;;;0.20;;
15238;SDS011;7722;53.274;9.500;2022-09-21T14:41:59;0.20;;;0.20;;
15238;SDS011;7722;53.274;9.500;2022-09-21T14:44:29;0.30;;;0.30;;
15238;SDS011;7722;53.274;9.500;2022-09-21T14:47:05;0.20;;;0.20;;
15238;SDS011;7722;53.274;9.500;2022-09-21T14:50:01;0.30;;;0.30;;
15238;SDS011;7722;53.274;9.500;2022-09-21T14:52:46;0.25;;;0.25;;
15238;SDS011;7722;53.274;9.500;2022-09-21T14:55:26;0.28;;;0.28;;
15238;SDS011;7722;53.274;9.500;2022-09-21T14:58:14;0.20;;;0.20;;
15238;SDS011;7722;53.274;9.500;2022-09-21T15:00:51;0.20;;;0.20;;
15238;SDS011;7722;53.274;9.500;2022-09-21T15:03:44;0.20;;;0.20;;
15238;SDS011;7722;53.274;9.500;2022-09-21T15:06:28;0.30;;;0.30;;
15238;SDS011;7722;53.274;9.500;2022-09-21T15:09:37;0.25;;;0.25;;
15238;SDS011;7722;53.274;9.500;2022-09-21T15:12:36;0.20;;;0.20;;
15238;SDS011;7722;53.274;9.500;2022-09-21T15:15:19;0.30;;;0.30;;
15238;SDS011;7722;53.274;9.500;2022-09-21T15:17:53;0.20;;;0.20;;
15238;SDS011;7722;53.274;9.500;2022-09-21T15:20:24;0.30;;;0.30;;
15238;SDS011;7722;53.274;9.500;2022-09-21T15:22:53;0.20;;;0.20;;
15238;SDS011;7722;53.274;9.500;2022-09-21T15:25:21;0.30;;;0.30;;
15238;SDS011;7722;53.274;9.500;2022-09-21T15:27:49;0.30;;;0.30;;
15238;SDS011;7722;53.274;9.500;2022-09-21T15:30:20;0.20;;;0.20;;
15238;SDS011;7722;53.274;9.500;2022-09-21T15:32:50;0.30;;;0.30;;
15238;SDS011;7722;53.274;9.500;2022-09-21T15:35:19;0.22;;;0.22;;
15238;SDS011;7722;53.274;9.500;2022-09-21T15:37:48;0.28;;;0.28;;
15238;SDS011;7722;53.274;9.500;2022-09-21T15:40:18;0.35;;;0.35;;
15238;SDS011;7722;53.274;9.500;2022-09-21T15:42:56;0.30;;;0.30;;
15238;SDS011;7722;53.274;9.500;2022-09-21T15:45:27;0.20;;;0.20;;
15238;SDS011;7722;53.274;9.500;2022-09-21T15:47:57;0.22;;;0.22;;
15238;SDS011;7722;53.274;9.500;2022-09-21T15:50:25;0.30;;;0.30;;
15238;SDS011;7722;53.274;9.500;2022-09-21T15:52:55;0.30;;;0.30;;
15238;SDS011;7722;53.274;9.500;2022-09-21T15:55:25;0.30;;;0.30;;
15238;SDS011;7722;53.274;9.500;2022-09-21T15:57:54;0.30;;;0.30;;
15238;SDS011;7722;53.274;9.500;2022-09-21T16:00:23;0.30;;;0.30;;
15238;SDS011;7722;53.274;9.500;2022-09-21T16:03:00;0.22;;;0.22;;
15238;SDS011;7722;53.274;9.500;2022-09-21T16:05:30;0.30;;;0.30;;
15238;SDS011;7722;53.274;9.500;2022-09-21T16:08:09;0.20;;;0.20;;